Aérodrome :
LOGIN :

S'inscrire | Disclaimer

   EN    FR    IT 

 










Légende :    VFR   VFR Marginal   IFR   IFR Intensif   IFR Très Intensif
Visi : 
Plafond : 
>= 8 km
>= 3000ft
5 à 8 km
1000 à 3000 ft
1500m à 5 km
500 à 1000 ft
800 à 1500m
200 à 500 ft
< 800m
< 200 ft
Symboles :   Orages  Brouillard  Fortes neiges  Fortes précipitations  Vent > 20 kt
SIGMETs :   Divers  Orages  Givrage  Turbulence  Onde Orograph.  Cendres Volcan.







- Altitude de l'aérodrome : 896 ft


LOAN - Wiener Neustadt East

DERNIER METAR :
  • 240800Z 27010KT 35KM FEW030CU SCT055SC BKN090AC

METARs EXPIRÉS :
  • 240700Z 27007KT 35KM FEW030CU SCT055SC BKN090AC
  • 240600Z 27007KT 30KM FEW030SC SCT055SC BKN090AC

TAF TAF LOAN
Valide du 24 à 06h jusqu'au 24 à 15h UTC


240600Z 2406/2415 27008KT 9999 SCT050 BKN090
TEMPO 2406/2408 -SHRA BKN050
BECMG 2408/2410 30015KT SCT050
Pas de NOTAMs connus pour ce terrain.



MET'MAP, la Météo Aéronautique d'un coup d'oeil ! - Copyright ORBIFLY Décembre 2007 - Disclaimer

ORBIFLY MET'MAP TEAM :

Programmation & Développement : Alexandra Zaïnal
Conception & Développement : Baudouin d'Aumeries
Co-Programmation & Développement : Marc-Olivier Méhu
Soutien technique & logistique : Manuel Goepfert

Contact : metmap@orbifly.com




SOURCES & CREDITS :

   NOAA